createdAt,value
2018-09-19T00:01:15.992Z,14.60
2018-09-19T00:03:44.301Z,14.60
2018-09-19T00:06:12.490Z,14.70
2018-09-19T00:08:40.727Z,14.70
2018-09-19T00:11:09.245Z,14.80
2018-09-19T00:13:37.507Z,14.80
2018-09-19T00:16:05.845Z,14.80
2018-09-19T00:18:34.390Z,14.80
2018-09-19T00:21:02.872Z,14.80
2018-09-19T00:23:31.136Z,14.80
2018-09-19T00:25:59.378Z,14.70
2018-09-19T00:28:27.625Z,14.70
2018-09-19T00:30:55.876Z,14.70
2018-09-19T00:33:24.133Z,14.70
2018-09-19T00:35:52.371Z,14.70
2018-09-19T00:38:20.608Z,14.70
2018-09-19T00:40:48.863Z,14.80
2018-09-19T00:43:17.097Z,14.80
2018-09-19T00:45:45.336Z,14.70
2018-09-19T00:48:13.593Z,14.70
2018-09-19T00:50:41.830Z,14.60
2018-09-19T00:53:11.068Z,14.60
2018-09-19T00:55:39.315Z,14.50
2018-09-19T00:58:07.557Z,14.40
2018-09-19T01:00:35.902Z,14.40
2018-09-19T01:03:04.171Z,14.30
2018-09-19T01:05:32.401Z,14.30
2018-09-19T01:08:00.654Z,14.20
2018-09-19T01:10:28.906Z,14.10
2018-09-19T01:12:57.136Z,14.10
2018-09-19T01:15:25.384Z,14.20
2018-09-19T01:17:53.642Z,14.10
2018-09-19T01:20:27.006Z,14.10
2018-09-19T01:22:55.241Z,14.10
2018-09-19T01:25:23.496Z,14.10
2018-09-19T01:27:51.742Z,14.10
2018-09-19T01:30:19.981Z,14.00
2018-09-19T01:32:48.244Z,14.00
2018-09-19T01:35:16.499Z,14.10
2018-09-19T01:37:44.745Z,14.10
2018-09-19T01:40:12.984Z,14.10
2018-09-19T01:42:41.225Z,14.10
2018-09-19T01:45:09.466Z,14.00
2018-09-19T01:47:37.744Z,14.10
2018-09-19T01:50:05.995Z,14.00
2018-09-19T01:52:34.229Z,14.00
2018-09-19T01:55:02.460Z,14.00
2018-09-19T01:57:30.693Z,14.00
2018-09-19T01:59:58.933Z,14.00
2018-09-19T02:02:27.181Z,14.00
2018-09-19T02:04:55.429Z,14.00
2018-09-19T02:07:23.693Z,13.90
2018-09-19T02:09:51.941Z,13.90
2018-09-19T02:12:20.192Z,13.90
2018-09-19T02:14:48.428Z,13.80
2018-09-19T02:17:16.680Z,13.80
2018-09-19T02:19:45.016Z,13.80
2018-09-19T02:22:13.275Z,13.80
2018-09-19T02:24:41.512Z,13.90
2018-09-19T02:27:09.741Z,13.90
2018-09-19T02:29:37.988Z,13.90
2018-09-19T02:32:06.313Z,13.90
2018-09-19T02:34:34.585Z,13.90
2018-09-19T02:37:02.834Z,13.80
2018-09-19T02:39:31.072Z,13.80
2018-09-19T02:41:59.316Z,13.70
2018-09-19T02:44:27.557Z,13.60
2018-09-19T02:46:55.798Z,13.60
2018-09-19T02:49:24.057Z,13.60
2018-09-19T02:51:55.781Z,13.50
2018-09-19T02:54:24.033Z,13.50
2018-09-19T02:56:52.281Z,13.40
2018-09-19T02:59:20.537Z,13.40
2018-09-19T03:01:48.768Z,13.40
2018-09-19T03:04:17.012Z,13.30
2018-09-19T03:06:45.269Z,13.40
2018-09-19T03:09:13.549Z,13.30
2018-09-19T03:11:41.793Z,13.30
2018-09-19T03:14:10.044Z,13.20
2018-09-19T03:16:38.298Z,13.20
2018-09-19T03:19:06.545Z,13.10
2018-09-19T03:21:34.785Z,13.10
2018-09-19T03:24:03.038Z,13.00
2018-09-19T03:26:31.297Z,12.90
2018-09-19T03:28:59.544Z,12.90
2018-09-19T03:33:55.856Z,12.80
2018-09-19T03:36:24.094Z,12.90
2018-09-19T03:38:52.332Z,12.80
2018-09-19T03:41:20.573Z,12.90
2018-09-19T03:43:48.845Z,12.90
2018-09-19T03:46:17.082Z,12.80
2018-09-19T03:48:45.340Z,12.80
2018-09-19T03:51:13.596Z,12.70
2018-09-19T03:53:41.848Z,12.70
2018-09-19T03:56:10.136Z,12.60
2018-09-19T03:58:38.350Z,12.50
2018-09-19T04:01:06.593Z,12.60
2018-09-19T04:03:34.861Z,12.50
2018-09-19T04:06:03.122Z,12.50
2018-09-19T04:08:31.389Z,12.40
2018-09-19T04:10:59.640Z,12.50
2018-09-19T04:13:27.885Z,12.60
2018-09-19T04:15:56.145Z,12.60
2018-09-19T04:18:24.388Z,12.80
2018-09-19T04:20:52.629Z,12.80
2018-09-19T04:23:20.999Z,12.70
2018-09-19T04:25:49.269Z,12.70
2018-09-19T04:28:17.528Z,12.70
2018-09-19T04:30:45.799Z,12.80
2018-09-19T04:33:14.036Z,12.70
2018-09-19T04:35:42.297Z,12.70
2018-09-19T04:38:10.561Z,12.70
2018-09-19T04:40:38.826Z,12.70
2018-09-19T04:43:07.074Z,12.70
2018-09-19T04:45:35.331Z,12.70
2018-09-19T04:48:03.574Z,12.90
2018-09-19T04:50:31.857Z,12.90
2018-09-19T04:53:00.095Z,12.80
2018-09-19T04:55:28.357Z,12.80
2018-09-19T04:57:56.600Z,12.80
2018-09-19T05:00:24.852Z,12.90
2018-09-19T05:02:53.100Z,12.80
2018-09-19T05:05:21.349Z,12.80
2018-09-19T05:07:49.613Z,12.90
2018-09-19T05:10:17.884Z,13.00
2018-09-19T05:12:46.155Z,13.10
2018-09-19T05:15:14.397Z,13.10
2018-09-19T05:17:42.685Z,13.10
2018-09-19T05:20:10.920Z,13.20
2018-09-19T05:22:39.211Z,13.20
2018-09-19T05:25:07.452Z,13.20
2018-09-19T05:27:35.706Z,13.20
2018-09-19T05:30:03.962Z,13.20
2018-09-19T05:32:32.214Z,13.30
2018-09-19T05:35:00.444Z,13.50
2018-09-19T05:37:28.704Z,13.50
2018-09-19T05:39:56.943Z,13.60
2018-09-19T05:42:25.192Z,13.60
2018-09-19T05:44:53.438Z,13.60
2018-09-19T05:47:21.689Z,13.70
2018-09-19T05:49:49.937Z,13.80
2018-09-19T05:52:19.800Z,13.80
2018-09-19T05:54:48.038Z,13.80
2018-09-19T05:57:16.288Z,13.80
2018-09-19T05:59:44.536Z,13.80
2018-09-19T06:02:12.781Z,13.90
2018-09-19T06:04:41.035Z,14.00
2018-09-19T06:07:09.288Z,14.10
2018-09-19T06:09:37.541Z,14.30
2018-09-19T06:12:05.797Z,14.40
2018-09-19T06:14:34.044Z,14.60
2018-09-19T06:17:02.303Z,14.80
2018-09-19T06:19:30.556Z,14.90
2018-09-19T06:21:58.810Z,15.00
2018-09-19T06:24:27.057Z,15.20
2018-09-19T06:26:55.340Z,15.30
2018-09-19T06:29:23.560Z,15.50
2018-09-19T06:31:51.808Z,15.70
2018-09-19T06:34:20.056Z,15.90
2018-09-19T06:36:48.296Z,16.00
2018-09-19T06:39:16.548Z,16.20
2018-09-19T06:41:44.788Z,16.50
2018-09-19T06:44:13.046Z,16.70
2018-09-19T06:46:41.421Z,17.00
2018-09-19T06:49:09.644Z,17.20
2018-09-19T06:51:37.900Z,17.50
2018-09-19T06:54:06.149Z,17.90
2018-09-19T06:56:34.421Z,18.40
2018-09-19T06:59:02.730Z,19.00
2018-09-19T07:01:31.002Z,19.60
2018-09-19T07:03:59.264Z,20.30
2018-09-19T07:06:27.542Z,20.60
2018-09-19T07:08:55.776Z,20.90
2018-09-19T07:11:24.027Z,21.30
2018-09-19T07:13:52.273Z,21.30
2018-09-19T07:16:20.524Z,21.00
2018-09-19T07:18:48.809Z,21.20
2018-09-19T07:21:17.037Z,20.90
2018-09-19T07:23:45.294Z,20.30
2018-09-19T07:26:13.529Z,19.90
2018-09-19T07:28:41.756Z,19.50
2018-09-19T07:31:10.009Z,19.30
2018-09-19T07:33:38.264Z,19.10
2018-09-19T07:36:06.745Z,19.00
2018-09-19T07:38:34.985Z,19.00
2018-09-19T07:41:03.230Z,18.90
2018-09-19T07:43:31.490Z,19.00
2018-09-19T07:45:59.754Z,19.10
2018-09-19T07:48:28.017Z,19.20
2018-09-19T07:50:56.277Z,19.40
2018-09-19T07:53:28.748Z,19.50
2018-09-19T07:55:56.991Z,20.30
2018-09-19T07:58:25.249Z,21.90
2018-09-19T08:00:53.623Z,24.60
2018-09-19T08:03:21.813Z,27.10
2018-09-19T08:05:50.078Z,29.60
2018-09-19T08:08:18.352Z,30.70
2018-09-19T08:10:46.593Z,33.10
2018-09-19T08:13:14.845Z,32.10
2018-09-19T08:15:43.112Z,33.00
2018-09-19T08:18:11.410Z,32.40
2018-09-19T08:20:39.663Z,30.50
2018-09-19T08:23:08.046Z,28.40
2018-09-19T08:25:36.306Z,27.50
2018-09-19T08:28:04.596Z,26.70
2018-09-19T08:30:32.825Z,26.20
2018-09-19T08:33:01.078Z,27.40
2018-09-19T08:35:29.330Z,28.70
2018-09-19T08:37:57.568Z,30.70
2018-09-19T08:40:25.898Z,31.70
2018-09-19T08:42:54.136Z,33.50
2018-09-19T08:45:22.383Z,35.00
2018-09-19T08:47:50.630Z,33.00
2018-09-19T08:50:18.871Z,31.70
2018-09-19T08:52:47.124Z,28.40
2018-09-19T08:55:15.360Z,27.20
2018-09-19T08:57:43.605Z,27.70
2018-09-19T09:00:11.857Z,29.40
2018-09-19T09:02:40.137Z,30.70
2018-09-19T09:05:08.424Z,30.60
2018-09-19T09:07:36.659Z,31.70
2018-09-19T09:10:05.218Z,32.90
2018-09-19T09:12:33.533Z,34.40
2018-09-19T09:15:01.745Z,33.90
2018-09-19T09:17:29.972Z,33.30
2018-09-19T09:19:58.246Z,32.20
2018-09-19T09:22:27.005Z,32.90
2018-09-19T09:24:55.259Z,33.80
2018-09-19T09:27:23.566Z,33.30
2018-09-19T09:29:51.814Z,33.80
2018-09-19T09:32:20.053Z,31.30
2018-09-19T09:34:48.298Z,29.70
2018-09-19T09:37:16.541Z,28.50
2018-09-19T09:39:44.788Z,27.20
2018-09-19T09:42:13.027Z,27.00
2018-09-19T09:44:41.347Z,28.00
2018-09-19T09:47:09.601Z,29.90
2018-09-19T09:49:38.217Z,31.60
2018-09-19T09:52:06.734Z,31.00
2018-09-19T09:54:35.336Z,29.90
2018-09-19T09:57:03.809Z,29.40
2018-09-19T09:59:32.036Z,30.40
2018-09-19T10:02:00.276Z,31.20
2018-09-19T10:04:28.876Z,32.00
2018-09-19T10:06:57.120Z,33.00
2018-09-19T10:09:25.357Z,32.90
2018-09-19T10:11:53.596Z,33.00
2018-09-19T10:14:22.770Z,32.90
2018-09-19T10:16:51.005Z,32.40
2018-09-19T10:19:19.233Z,32.30
2018-09-19T10:21:47.607Z,32.60
2018-09-19T10:24:15.844Z,32.60
2018-09-19T10:26:44.157Z,33.00
2018-09-19T10:29:12.387Z,34.20
2018-09-19T10:31:40.747Z,32.50
2018-09-19T10:34:08.986Z,31.80
2018-09-19T10:36:37.224Z,32.20
2018-09-19T10:39:07.673Z,33.00
2018-09-19T10:41:35.919Z,33.20
2018-09-19T10:44:04.220Z,33.30
2018-09-19T10:46:32.421Z,33.60
2018-09-19T10:49:00.659Z,33.90
2018-09-19T10:51:28.936Z,34.00
2018-09-19T10:53:57.201Z,34.30
2018-09-19T10:56:25.448Z,34.40
2018-09-19T10:58:53.680Z,32.80
2018-09-19T11:01:21.909Z,32.90
2018-09-19T11:03:50.153Z,33.00
2018-09-19T11:06:18.401Z,32.50
2018-09-19T11:08:46.641Z,32.30
2018-09-19T11:11:14.872Z,32.20
2018-09-19T11:13:43.109Z,32.60
2018-09-19T11:16:11.372Z,33.00
2018-09-19T11:18:39.609Z,34.10
2018-09-19T11:21:07.857Z,33.50
2018-09-19T11:23:36.129Z,33.50
2018-09-19T11:26:04.370Z,33.00
2018-09-19T11:28:32.653Z,32.40
2018-09-19T11:31:00.893Z,32.40
2018-09-19T11:33:29.257Z,32.90
2018-09-19T11:35:57.586Z,31.70
2018-09-19T11:38:25.804Z,31.40
2018-09-19T11:40:54.049Z,31.80
2018-09-19T11:43:22.307Z,32.20
2018-09-19T11:45:50.536Z,32.40
2018-09-19T11:48:18.784Z,32.60
2018-09-19T11:50:47.016Z,33.20
2018-09-19T11:53:20.763Z,33.00
2018-09-19T11:55:49.033Z,33.00
2018-09-19T11:58:17.277Z,33.10
2018-09-19T12:00:45.529Z,32.90
2018-09-19T12:03:13.776Z,33.10
2018-09-19T12:05:42.017Z,32.80
2018-09-19T12:08:10.261Z,32.90
2018-09-19T12:10:38.505Z,32.50
2018-09-19T12:13:06.775Z,32.50
2018-09-19T12:15:35.533Z,32.60
2018-09-19T12:18:03.789Z,32.20
2018-09-19T12:20:32.404Z,32.50
2018-09-19T12:23:00.828Z,32.90
2018-09-19T12:25:29.104Z,32.50
2018-09-19T12:27:57.531Z,32.80
2018-09-19T12:30:25.895Z,32.50
2018-09-19T12:32:54.137Z,32.20
2018-09-19T12:35:22.422Z,32.20
2018-09-19T12:37:50.737Z,32.50
2018-09-19T12:40:19.020Z,32.90
2018-09-19T12:42:47.256Z,32.90
2018-09-19T12:45:15.557Z,33.20
2018-09-19T12:47:43.804Z,32.90
2018-09-19T12:50:12.037Z,32.90
2018-09-19T12:52:40.307Z,32.90
2018-09-19T12:55:08.577Z,32.90
2018-09-19T12:57:36.822Z,33.20
2018-09-19T13:00:05.152Z,33.70
2018-09-19T13:02:33.401Z,33.80
2018-09-19T13:05:01.762Z,33.10
2018-09-19T13:07:30.014Z,32.70
2018-09-19T13:09:58.657Z,32.20
2018-09-19T13:12:26.937Z,32.50
2018-09-19T13:14:55.187Z,32.60
2018-09-19T13:17:23.420Z,32.20
2018-09-19T13:19:51.664Z,32.30
2018-09-19T13:22:19.914Z,32.40
2018-09-19T13:24:48.160Z,32.60
2018-09-19T13:27:16.711Z,32.60
2018-09-19T13:29:44.935Z,33.00
2018-09-19T13:32:13.189Z,33.10
2018-09-19T13:34:41.428Z,33.40
2018-09-19T13:37:09.680Z,33.10
2018-09-19T13:39:37.924Z,32.80
2018-09-19T13:42:06.188Z,32.90
2018-09-19T13:44:34.429Z,32.80
2018-09-19T13:47:02.677Z,32.80
2018-09-19T13:49:37.348Z,32.80
2018-09-19T13:52:05.832Z,33.40
2018-09-19T13:54:34.095Z,32.90
2018-09-19T13:57:02.683Z,32.50
2018-09-19T13:59:30.912Z,32.50
2018-09-19T14:01:59.185Z,31.70
2018-09-19T14:04:27.487Z,31.80
2018-09-19T14:06:55.895Z,31.70
2018-09-19T14:09:24.209Z,31.60
2018-09-19T14:11:52.453Z,31.00
2018-09-19T14:14:20.724Z,31.20
2018-09-19T14:16:49.013Z,31.30
2018-09-19T14:19:17.348Z,31.20
2018-09-19T14:21:45.586Z,31.10
2018-09-19T14:24:13.847Z,31.00
2018-09-19T14:26:42.196Z,30.80
2018-09-19T14:29:10.749Z,30.80
2018-09-19T14:31:39.185Z,30.80
2018-09-19T14:34:07.445Z,30.90
2018-09-19T14:36:35.681Z,31.00
2018-09-19T14:39:05.062Z,31.20
2018-09-19T14:41:33.321Z,31.00
2018-09-19T14:44:01.571Z,30.70
2018-09-19T14:46:29.839Z,30.40
2018-09-19T14:48:58.212Z,30.20
2018-09-19T14:51:26.394Z,30.00
2018-09-19T14:53:54.660Z,29.90
2018-09-19T14:56:22.908Z,29.80
2018-09-19T14:58:51.157Z,29.70
2018-09-19T15:01:20.053Z,29.50
2018-09-19T15:03:48.326Z,29.40
2018-09-19T15:06:17.226Z,29.20
2018-09-19T15:08:45.469Z,29.00
2018-09-19T15:11:13.728Z,28.90
2018-09-19T15:13:41.973Z,28.80
2018-09-19T15:16:10.521Z,28.70
2018-09-19T15:18:38.904Z,28.60
2018-09-19T15:21:07.285Z,28.50
2018-09-19T15:23:35.651Z,28.50
2018-09-19T15:26:04.456Z,28.40
2018-09-19T15:28:32.720Z,28.40
2018-09-19T15:31:00.967Z,28.30
2018-09-19T15:33:29.216Z,28.20
2018-09-19T15:35:57.760Z,28.30
2018-09-19T15:38:26.037Z,28.20
2018-09-19T15:40:54.236Z,28.20
2018-09-19T15:43:23.042Z,28.10
2018-09-19T15:45:51.372Z,28.10
2018-09-19T15:48:19.755Z,28.00
2018-09-19T15:50:48.014Z,27.90
2018-09-19T15:53:16.246Z,27.90
2018-09-19T15:55:44.527Z,27.90
2018-09-19T15:58:12.857Z,27.90
2018-09-19T16:00:41.097Z,27.80
2018-09-19T16:03:09.485Z,27.80
2018-09-19T16:05:37.890Z,27.80
2018-09-19T16:08:06.123Z,27.80
2018-09-19T16:10:34.361Z,27.70
2018-09-19T16:13:02.615Z,27.60
2018-09-19T16:15:30.866Z,27.50
2018-09-19T16:17:59.257Z,27.40
2018-09-19T16:20:27.500Z,27.20
2018-09-19T16:22:55.728Z,27.20
2018-09-19T16:25:23.972Z,27.00
2018-09-19T16:27:52.292Z,26.90
2018-09-19T16:30:20.533Z,26.80
2018-09-19T16:32:48.791Z,26.70
2018-09-19T16:35:17.042Z,26.60
2018-09-19T16:37:46.310Z,26.40
2018-09-19T16:40:14.672Z,26.40
2018-09-19T16:42:42.925Z,26.30
2018-09-19T16:45:11.177Z,26.10
2018-09-19T16:47:39.434Z,26.00
2018-09-19T16:50:07.697Z,26.00
2018-09-19T16:52:35.935Z,25.80
2018-09-19T16:55:04.274Z,25.70
2018-09-19T16:57:32.535Z,25.50
2018-09-19T17:00:00.913Z,25.40
2018-09-19T17:02:29.194Z,25.30
2018-09-19T17:04:57.617Z,25.20
2018-09-19T17:07:25.874Z,25.00
2018-09-19T17:09:54.199Z,25.00
2018-09-19T17:12:22.514Z,24.80
2018-09-19T17:14:50.777Z,24.70
2018-09-19T17:17:19.110Z,24.50
2018-09-19T17:19:47.449Z,24.40
2018-09-19T17:22:15.853Z,24.20
2018-09-19T17:24:44.115Z,24.00
2018-09-19T17:27:12.368Z,23.80
2018-09-19T17:29:40.629Z,23.60
2018-09-19T17:32:09.034Z,23.40
2018-09-19T17:34:37.409Z,23.20
2018-09-19T17:37:05.794Z,23.00
2018-09-19T17:39:34.098Z,22.80
2018-09-19T17:42:02.849Z,22.60
2018-09-19T17:44:31.693Z,22.50
2018-09-19T17:46:59.981Z,22.40
2018-09-19T17:49:28.275Z,22.40
2018-09-19T17:51:56.580Z,22.30
2018-09-19T17:54:24.864Z,22.30
2018-09-19T17:56:53.144Z,22.20
2018-09-19T17:59:21.947Z,22.10
2018-09-19T18:01:50.645Z,22.00
2018-09-19T18:04:19.826Z,22.00
2018-09-19T18:06:48.342Z,22.00
2018-09-19T18:09:16.705Z,22.00
2018-09-19T18:11:44.968Z,22.10
2018-09-19T18:14:13.229Z,22.20
2018-09-19T18:16:41.485Z,22.20
2018-09-19T18:19:09.829Z,22.40
2018-09-19T18:21:38.394Z,22.30
2018-09-19T18:24:06.661Z,22.10
2018-09-19T18:26:34.972Z,21.90
2018-09-19T18:29:03.512Z,21.70
2018-09-19T18:31:31.941Z,21.50
2018-09-19T18:34:00.342Z,21.40
2018-09-19T18:36:28.624Z,21.10
2018-09-19T18:38:56.888Z,21.00
2018-09-19T18:41:25.187Z,21.00
2018-09-19T18:43:53.647Z,20.80
2018-09-19T18:46:21.931Z,20.70
2018-09-19T18:48:50.225Z,20.60
2018-09-19T18:51:18.493Z,20.50
2018-09-19T18:53:46.786Z,20.60
2018-09-19T18:56:15.092Z,21.00
2018-09-19T18:58:43.356Z,21.20
2018-09-19T19:01:11.626Z,21.40
2018-09-19T19:03:39.878Z,21.60
2018-09-19T19:06:08.145Z,21.70
2018-09-19T19:08:36.441Z,21.80
2018-09-19T19:11:04.824Z,21.80
2018-09-19T19:13:48.024Z,21.90
2018-09-19T19:16:16.410Z,21.90
2018-09-19T19:18:44.687Z,21.90
2018-09-19T19:21:12.932Z,21.90
2018-09-19T19:23:41.188Z,21.90
2018-09-19T19:26:09.458Z,21.70
2018-09-19T19:28:37.771Z,21.60
2018-09-19T19:31:06.034Z,21.30
2018-09-19T19:33:34.305Z,21.10
2018-09-19T19:36:02.614Z,20.90
2018-09-19T19:38:30.841Z,20.80
2018-09-19T19:40:59.105Z,20.60
2018-09-19T19:43:27.372Z,20.50
2018-09-19T19:45:55.610Z,20.40
2018-09-19T19:48:23.907Z,20.20
2018-09-19T19:50:52.248Z,20.00
2018-09-19T19:53:20.616Z,19.90
2018-09-19T19:55:48.839Z,19.80
2018-09-19T19:58:17.113Z,19.70
2018-09-19T20:00:45.415Z,19.70
2018-09-19T20:03:13.681Z,19.50
2018-09-19T20:05:41.950Z,19.40
2018-09-19T20:08:10.238Z,19.30
2018-09-19T20:10:38.573Z,19.30
2018-09-19T20:13:07.470Z,19.20
2018-09-19T20:15:35.728Z,19.10
2018-09-19T20:18:04.093Z,19.00
2018-09-19T20:20:32.364Z,19.00
2018-09-19T20:23:00.613Z,18.90
2018-09-19T20:25:28.878Z,18.80
2018-09-19T20:27:57.129Z,18.70
2018-09-19T20:30:25.413Z,18.60
2018-09-19T20:32:53.669Z,18.50
2018-09-19T20:35:22.077Z,18.40
2018-09-19T20:37:50.313Z,18.40
2018-09-19T20:40:18.585Z,18.30
2018-09-19T20:42:46.828Z,18.20
2018-09-19T20:45:15.068Z,18.00
2018-09-19T20:47:43.336Z,18.00
2018-09-19T20:50:11.601Z,17.90
2018-09-19T20:52:39.849Z,17.80
2018-09-19T20:55:08.101Z,17.70
2018-09-19T20:57:36.333Z,17.70
2018-09-19T21:00:04.736Z,17.60
2018-09-19T21:02:32.966Z,17.60
2018-09-19T21:05:01.215Z,17.50
2018-09-19T21:07:29.461Z,17.60
2018-09-19T21:09:57.709Z,17.40
2018-09-19T21:12:25.944Z,17.40
2018-09-19T21:14:54.197Z,17.50
2018-09-19T21:17:22.462Z,17.50
2018-09-19T21:19:50.731Z,17.40
2018-09-19T21:22:19.118Z,17.40
2018-09-19T21:24:47.218Z,17.30
2018-09-19T21:27:15.452Z,17.20
2018-09-19T21:29:43.708Z,17.10
2018-09-19T21:32:11.972Z,16.90
2018-09-19T21:34:40.189Z,16.80
2018-09-19T21:37:08.429Z,16.70
2018-09-19T21:39:36.657Z,16.60
2018-09-19T21:42:04.896Z,16.50
2018-09-19T21:44:33.145Z,16.60
2018-09-19T21:47:01.397Z,16.70
2018-09-19T21:49:29.636Z,16.80
2018-09-19T21:51:57.882Z,16.90
2018-09-19T21:54:26.113Z,16.90
2018-09-19T21:56:54.352Z,16.90
2018-09-19T21:59:22.591Z,16.80
2018-09-19T22:01:56.338Z,16.60
2018-09-19T22:04:24.592Z,16.40
2018-09-19T22:06:52.852Z,16.30
2018-09-19T22:09:21.121Z,16.30
2018-09-19T22:11:49.372Z,16.30
2018-09-19T22:14:17.612Z,16.20
2018-09-19T22:16:45.944Z,16.10
2018-09-19T22:19:14.172Z,16.00
2018-09-19T22:21:42.417Z,16.00
2018-09-19T22:24:10.663Z,16.00
2018-09-19T22:26:39.028Z,15.90
2018-09-19T22:29:07.274Z,15.90
2018-09-19T22:31:35.505Z,16.00
2018-09-19T22:34:03.752Z,16.00
2018-09-19T22:36:32.001Z,16.00
2018-09-19T22:39:00.237Z,16.00
2018-09-19T22:41:28.480Z,16.00
2018-09-19T22:43:56.716Z,16.00
2018-09-19T22:46:24.949Z,15.90
2018-09-19T22:48:53.226Z,15.80
2018-09-19T22:51:21.473Z,15.80
2018-09-19T22:53:49.733Z,15.70
2018-09-19T22:56:17.972Z,15.70
2018-09-19T22:58:52.836Z,15.70
2018-09-19T23:01:21.084Z,15.70
2018-09-19T23:03:49.540Z,15.70
2018-09-19T23:06:17.829Z,15.70
2018-09-19T23:08:46.073Z,15.70
2018-09-19T23:11:14.313Z,15.70
2018-09-19T23:13:42.553Z,15.70
2018-09-19T23:16:10.805Z,15.70
2018-09-19T23:18:39.037Z,15.60
2018-09-19T23:21:07.284Z,15.60
2018-09-19T23:23:35.544Z,15.50
2018-09-19T23:26:03.777Z,15.50
2018-09-19T23:28:32.016Z,15.50
2018-09-19T23:31:00.245Z,15.40
2018-09-19T23:33:28.488Z,15.30
2018-09-19T23:35:56.733Z,15.20
2018-09-19T23:38:25.062Z,15.20
2018-09-19T23:40:53.312Z,15.10
2018-09-19T23:43:21.593Z,15.00
2018-09-19T23:45:49.946Z,15.00
2018-09-19T23:48:18.213Z,15.10
2018-09-19T23:50:46.479Z,15.10
2018-09-19T23:53:14.721Z,15.00
2018-09-19T23:55:42.958Z,15.00
2018-09-19T23:58:11.201Z,14.90
